sensor_id;sensor_type;location;lat;lon;timestamp;temperature;humidity
55331;DHT22;58851;42.984;20.336;2023-02-28T00:00:05;77.60;6476.80
55331;DHT22;58851;42.984;20.336;2023-02-28T00:02:38;77.70;6476.80
55331;DHT22;58851;42.984;20.336;2023-02-28T00:05:05;77.70;6476.80
55331;DHT22;58851;42.984;20.336;2023-02-28T00:07:31;102.40;6476.80
55331;DHT22;58851;42.984;20.336;2023-02-28T00:09:57;102.40;6476.80
55331;DHT22;58851;42.984;20.336;2023-02-28T00:12:24;102.40;6476.80
55331;DHT22;58851;42.984;20.336;2023-02-28T00:14:50;102.40;6476.80
55331;DHT22;58851;42.984;20.336;2023-02-28T00:17:16;102.40;6476.80
55331;DHT22;58851;42.984;20.336;2023-02-28T00:19:50;102.40;6476.80
55331;DHT22;58851;42.984;20.336;2023-02-28T00:22:18;77.70;6476.80
55331;DHT22;58851;42.984;20.336;2023-02-28T00:24:44;77.70;6476.80
55331;DHT22;58851;42.984;20.336;2023-02-28T00:27:10;102.40;6476.80
55331;DHT22;58851;42.984;20.336;2023-02-28T00:29:36;102.40;6476.80
55331;DHT22;58851;42.984;20.336;2023-02-28T00:32:02;102.40;6476.80
55331;DHT22;58851;42.984;20.336;2023-02-28T00:34:28;102.40;6476.80
55331;DHT22;58851;42.984;20.336;2023-02-28T00:36:54;102.40;6476.80
55331;DHT22;58851;42.984;20.336;2023-02-28T00:39:20;77.70;6476.80
55331;DHT22;58851;42.984;20.336;2023-02-28T00:41:46;77.70;6476.80
55331;DHT22;58851;42.984;20.336;2023-02-28T00:44:11;77.70;6476.80
55331;DHT22;58851;42.984;20.336;2023-02-28T00:46:37;77.70;6476.80
55331;DHT22;58851;42.984;20.336;2023-02-28T00:49:03;102.40;6476.80
55331;DHT22;58851;42.984;20.336;2023-02-28T00:51:29;77.60;6476.80
55331;DHT22;58851;42.984;20.336;2023-02-28T00:53:54;77.60;6476.80
55331;DHT22;58851;42.984;20.336;2023-02-28T00:56:20;77.60;6476.80
55331;DHT22;58851;42.984;20.336;2023-02-28T00:58:46;77.70;6476.80
55331;DHT22;58851;42.984;20.336;2023-02-28T01:01:12;77.60;6476.80
55331;DHT22;58851;42.984;20.336;2023-02-28T01:03:37;77.50;6476.80
55331;DHT22;58851;42.984;20.336;2023-02-28T01:06:04;77.60;6476.80
55331;DHT22;58851;42.984;20.336;2023-02-28T01:08:31;77.70;6476.80
55331;DHT22;58851;42.984;20.336;2023-02-28T01:10:56;77.70;6476.80
55331;DHT22;58851;42.984;20.336;2023-02-28T01:13:23;77.70;6476.80
55331;DHT22;58851;42.984;20.336;2023-02-28T01:15:53;77.70;6476.80
55331;DHT22;58851;42.984;20.336;2023-02-28T01:18:20;102.40;6476.80
55331;DHT22;58851;42.984;20.336;2023-02-28T01:20:47;102.40;6476.80
55331;DHT22;58851;42.984;20.336;2023-02-28T01:23:13;77.70;6476.80
55331;DHT22;58851;42.984;20.336;2023-02-28T01:25:39;102.40;6476.80
55331;DHT22;58851;42.984;20.336;2023-02-28T01:28:05;102.40;6476.80
55331;DHT22;58851;42.984;20.336;2023-02-28T01:30:31;102.40;6476.80
55331;DHT22;58851;42.984;20.336;2023-02-28T01:32:57;102.40;6476.80
55331;DHT22;58851;42.984;20.336;2023-02-28T01:35:23;102.40;6476.80
55331;DHT22;58851;42.984;20.336;2023-02-28T01:37:49;77.60;6476.80
55331;DHT22;58851;42.984;20.336;2023-02-28T01:40:15;77.50;6476.80
55331;DHT22;58851;42.984;20.336;2023-02-28T01:42:41;77.50;6476.80
55331;DHT22;58851;42.984;20.336;2023-02-28T01:45:26;77.60;6476.80
55331;DHT22;58851;42.984;20.336;2023-02-28T01:47:52;77.60;6476.80
55331;DHT22;58851;42.984;20.336;2023-02-28T01:50:23;77.50;6476.80
55331;DHT22;58851;42.984;20.336;2023-02-28T01:52:52;77.40;6476.80
55331;DHT22;58851;42.984;20.336;2023-02-28T01:55:20;77.40;6476.80
55331;DHT22;58851;42.984;20.336;2023-02-28T01:57:52;77.40;6476.80
55331;DHT22;58851;42.984;20.336;2023-02-28T02:00:22;77.40;6476.80
55331;DHT22;58851;42.984;20.336;2023-02-28T02:02:51;77.50;6476.80
55331;DHT22;58851;42.984;20.336;2023-02-28T02:05:21;77.50;6476.80
55331;DHT22;58851;42.984;20.336;2023-02-28T02:07:51;77.40;6476.80
55331;DHT22;58851;42.984;20.336;2023-02-28T02:10:25;77.50;6476.80
55331;DHT22;58851;42.984;20.336;2023-02-28T02:18:48;77.30;128.00
55331;DHT22;58851;42.984;20.336;2023-02-28T02:38:05;77.60;6476.80
55331;DHT22;58851;42.984;20.336;2023-02-28T02:40:44;77.40;6476.80
55331;DHT22;58851;42.984;20.336;2023-02-28T02:46:02;77.30;6476.80
55331;DHT22;58851;42.984;20.336;2023-02-28T02:48:33;77.40;6476.80
55331;DHT22;58851;42.984;20.336;2023-02-28T02:51:03;77.60;6476.80
55331;DHT22;58851;42.984;20.336;2023-02-28T02:53:34;77.60;6476.80
55331;DHT22;58851;42.984;20.336;2023-02-28T02:56:03;77.60;6476.80
55331;DHT22;58851;42.984;20.336;2023-02-28T02:58:32;77.70;6476.80
55331;DHT22;58851;42.984;20.336;2023-02-28T03:01:01;102.40;6476.80
55331;DHT22;58851;42.984;20.336;2023-02-28T03:03:29;102.40;6476.80
55331;DHT22;58851;42.984;20.336;2023-02-28T03:05:58;77.70;6476.80
55331;DHT22;58851;42.984;20.336;2023-02-28T03:08:27;102.40;6476.80
55331;DHT22;58851;42.984;20.336;2023-02-28T03:11:02;102.40;6476.80
55331;DHT22;58851;42.984;20.336;2023-02-28T03:27:42;77.50;6476.80
55331;DHT22;58851;42.984;20.336;2023-02-28T03:30:24;77.50;6476.80
55331;DHT22;58851;42.984;20.336;2023-02-28T03:35:32;77.40;6476.80
55331;DHT22;58851;42.984;20.336;2023-02-28T03:38:16;77.40;6476.80
55331;DHT22;58851;42.984;20.336;2023-02-28T03:40:50;77.30;6476.80
55331;DHT22;58851;42.984;20.336;2023-02-28T03:43:24;77.40;6476.80
55331;DHT22;58851;42.984;20.336;2023-02-28T03:45:51;77.40;6476.80
55331;DHT22;58851;42.984;20.336;2023-02-28T03:48:31;77.40;6476.80
55331;DHT22;58851;42.984;20.336;2023-02-28T03:51:02;77.30;6476.80
55331;DHT22;58851;42.984;20.336;2023-02-28T03:53:44;77.50;6476.80
55331;DHT22;58851;42.984;20.336;2023-02-28T03:56:24;77.50;6476.80
55331;DHT22;58851;42.984;20.336;2023-02-28T04:01:48;77.50;6476.80
55331;DHT22;58851;42.984;20.336;2023-02-28T04:04:15;77.60;6476.80
55331;DHT22;58851;42.984;20.336;2023-02-28T04:06:42;77.70;6476.80
55331;DHT22;58851;42.984;20.336;2023-02-28T04:09:11;77.60;6476.80
55331;DHT22;58851;42.984;20.336;2023-02-28T04:14:04;77.60;6476.80
55331;DHT22;58851;42.984;20.336;2023-02-28T04:16:32;77.60;6476.80
55331;DHT22;58851;42.984;20.336;2023-02-28T04:18:58;77.60;6476.80
55331;DHT22;58851;42.984;20.336;2023-02-28T04:21:40;77.60;6476.80
55331;DHT22;58851;42.984;20.336;2023-02-28T04:24:07;77.60;6476.80
55331;DHT22;58851;42.984;20.336;2023-02-28T04:26:36;77.40;6476.80
55331;DHT22;58851;42.984;20.336;2023-02-28T04:29:03;77.50;6476.80
55331;DHT22;58851;42.984;20.336;2023-02-28T04:31:29;77.40;6476.80
55331;DHT22;58851;42.984;20.336;2023-02-28T04:33:55;77.40;6476.80
55331;DHT22;58851;42.984;20.336;2023-02-28T04:36:21;77.40;6476.80
55331;DHT22;58851;42.984;20.336;2023-02-28T04:38:49;77.50;6476.80
55331;DHT22;58851;42.984;20.336;2023-02-28T04:41:15;77.50;6476.80
55331;DHT22;58851;42.984;20.336;2023-02-28T04:43:42;77.50;6476.80
55331;DHT22;58851;42.984;20.336;2023-02-28T04:46:08;77.50;6476.80
55331;DHT22;58851;42.984;20.336;2023-02-28T04:48:36;77.50;6476.80
55331;DHT22;58851;42.984;20.336;2023-02-28T04:51:11;77.50;6476.80
55331;DHT22;58851;42.984;20.336;2023-02-28T04:53:38;77.60;6476.80
55331;DHT22;58851;42.984;20.336;2023-02-28T04:56:04;77.60;6476.80
55331;DHT22;58851;42.984;20.336;2023-02-28T04:58:31;77.50;6476.80
55331;DHT22;58851;42.984;20.336;2023-02-28T05:03:47;77.50;6476.80
55331;DHT22;58851;42.984;20.336;2023-02-28T05:06:13;77.60;6476.80
55331;DHT22;58851;42.984;20.336;2023-02-28T05:08:40;77.50;6476.80
55331;DHT22;58851;42.984;20.336;2023-02-28T05:11:12;77.30;6476.80
55331;DHT22;58851;42.984;20.336;2023-02-28T05:13:39;77.40;6476.80
55331;DHT22;58851;42.984;20.336;2023-02-28T05:16:05;77.30;6502.40
55331;DHT22;58851;42.984;20.336;2023-02-28T05:18:31;77.40;6476.80
55331;DHT22;58851;42.984;20.336;2023-02-28T05:20:57;77.40;6476.80
55331;DHT22;58851;42.984;20.336;2023-02-28T05:23:23;77.30;204.80
55331;DHT22;58851;42.984;20.336;2023-02-28T05:25:48;77.30;588.80
55331;DHT22;58851;42.984;20.336;2023-02-28T05:28:14;77.20;1561.60
55331;DHT22;58851;42.984;20.336;2023-02-28T05:30:40;77.20;1254.40
55331;DHT22;58851;42.984;20.336;2023-02-28T05:33:06;77.30;768.00
55331;DHT22;58851;42.984;20.336;2023-02-28T05:35:32;77.40;128.00
55331;DHT22;58851;42.984;20.336;2023-02-28T05:37:57;77.50;6476.80
55331;DHT22;58851;42.984;20.336;2023-02-28T05:40:23;77.50;6476.80
55331;DHT22;58851;42.984;20.336;2023-02-28T05:42:50;77.60;6476.80
55331;DHT22;58851;42.984;20.336;2023-02-28T05:45:16;77.70;6476.80
55331;DHT22;58851;42.984;20.336;2023-02-28T05:47:42;77.70;6476.80
55331;DHT22;58851;42.984;20.336;2023-02-28T05:50:08;102.40;6476.80
55331;DHT22;58851;42.984;20.336;2023-02-28T05:52:36;77.60;6476.80
55331;DHT22;58851;42.984;20.336;2023-02-28T05:55:03;77.70;6476.80
55331;DHT22;58851;42.984;20.336;2023-02-28T05:57:29;77.70;6476.80
55331;DHT22;58851;42.984;20.336;2023-02-28T05:59:55;102.40;6476.80
55331;DHT22;58851;42.984;20.336;2023-02-28T06:02:20;102.40;6476.80
55331;DHT22;58851;42.984;20.336;2023-02-28T06:04:46;102.40;6476.80
55331;DHT22;58851;42.984;20.336;2023-02-28T06:07:12;102.40;6476.80
55331;DHT22;58851;42.984;20.336;2023-02-28T06:09:38;102.40;6476.80
55331;DHT22;58851;42.984;20.336;2023-02-28T06:12:06;102.40;6476.80
55331;DHT22;58851;42.984;20.336;2023-02-28T06:14:33;102.40;6476.80
55331;DHT22;58851;42.984;20.336;2023-02-28T06:17:00;102.40;6476.80
55331;DHT22;58851;42.984;20.336;2023-02-28T06:19:27;102.40;6476.80
55331;DHT22;58851;42.984;20.336;2023-02-28T06:21:53;102.40;6476.80
55331;DHT22;58851;42.984;20.336;2023-02-28T06:24:20;102.40;6476.80
55331;DHT22;58851;42.984;20.336;2023-02-28T06:26:46;102.40;6476.80
55331;DHT22;58851;42.984;20.336;2023-02-28T06:29:12;102.40;6476.80
55331;DHT22;58851;42.984;20.336;2023-02-28T06:31:43;102.40;6476.80
55331;DHT22;58851;42.984;20.336;2023-02-28T06:34:09;102.50;6476.80
55331;DHT22;58851;42.984;20.336;2023-02-28T06:36:38;102.50;6476.80
55331;DHT22;58851;42.984;20.336;2023-02-28T06:39:03;102.40;6476.80
55331;DHT22;58851;42.984;20.336;2023-02-28T06:41:30;102.50;6476.80
55331;DHT22;58851;42.984;20.336;2023-02-28T06:43:55;102.50;6476.80
55331;DHT22;58851;42.984;20.336;2023-02-28T06:46:21;102.50;6476.80
55331;DHT22;58851;42.984;20.336;2023-02-28T06:48:47;102.60;6476.80
55331;DHT22;58851;42.984;20.336;2023-02-28T06:51:15;102.70;6476.80
55331;DHT22;58851;42.984;20.336;2023-02-28T06:53:42;102.70;6476.80
55331;DHT22;58851;42.984;20.336;2023-02-28T06:56:10;102.80;6476.80
55331;DHT22;58851;42.984;20.336;2023-02-28T06:58:37;102.80;6476.80
55331;DHT22;58851;42.984;20.336;2023-02-28T07:01:04;102.80;6476.80
55331;DHT22;58851;42.984;20.336;2023-02-28T07:03:30;102.80;6476.80
55331;DHT22;58851;42.984;20.336;2023-02-28T07:05:56;103.00;6476.80
55331;DHT22;58851;42.984;20.336;2023-02-28T07:08:25;102.80;6476.80
55331;DHT22;58851;42.984;20.336;2023-02-28T07:10:54;102.80;6476.80
55331;DHT22;58851;42.984;20.336;2023-02-28T07:13:21;102.70;6476.80
55331;DHT22;58851;42.984;20.336;2023-02-28T07:16:00;102.60;6476.80
55331;DHT22;58851;42.984;20.336;2023-02-28T07:18:26;102.60;6476.80
55331;DHT22;58851;42.984;20.336;2023-02-28T07:20:52;102.60;6476.80
55331;DHT22;58851;42.984;20.336;2023-02-28T07:23:18;102.70;6476.80
55331;DHT22;58851;42.984;20.336;2023-02-28T07:25:44;102.60;6476.80
55331;DHT22;58851;42.984;20.336;2023-02-28T07:28:12;102.60;6476.80
55331;DHT22;58851;42.984;20.336;2023-02-28T07:30:38;102.70;6476.80
55331;DHT22;58851;42.984;20.336;2023-02-28T07:33:03;102.60;6476.80
55331;DHT22;58851;42.984;20.336;2023-02-28T07:35:30;102.60;6476.80
55331;DHT22;58851;42.984;20.336;2023-02-28T07:37:57;102.80;6476.80
55331;DHT22;58851;42.984;20.336;2023-02-28T07:40:23;102.80;6476.80
55331;DHT22;58851;42.984;20.336;2023-02-28T07:42:49;102.90;6476.80
55331;DHT22;58851;42.984;20.336;2023-02-28T07:45:15;103.00;6476.80
55331;DHT22;58851;42.984;20.336;2023-02-28T07:47:41;103.00;6476.80
55331;DHT22;58851;42.984;20.336;2023-02-28T07:50:09;103.20;6476.80
55331;DHT22;58851;42.984;20.336;2023-02-28T07:52:39;103.20;6476.80
55331;DHT22;58851;42.984;20.336;2023-02-28T07:55:06;103.30;6476.80
55331;DHT22;58851;42.984;20.336;2023-02-28T07:57:32;128.00;6502.40
55331;DHT22;58851;42.984;20.336;2023-02-28T07:59:58;128.10;6502.40
55331;DHT22;58851;42.984;20.336;2023-02-28T08:02:24;128.20;6502.40
55331;DHT22;58851;42.984;20.336;2023-02-28T08:04:50;128.10;6502.40
55331;DHT22;58851;42.984;20.336;2023-02-28T08:07:16;128.20;6502.40
55331;DHT22;58851;42.984;20.336;2023-02-28T08:09:43;128.10;6502.40
55331;DHT22;58851;42.984;20.336;2023-02-28T08:12:10;128.20;6502.40
55331;DHT22;58851;42.984;20.336;2023-02-28T08:14:37;128.10;6502.40
55331;DHT22;58851;42.984;20.336;2023-02-28T08:17:03;128.10;6502.40
55331;DHT22;58851;42.984;20.336;2023-02-28T08:19:31;128.20;6502.40
55331;DHT22;58851;42.984;20.336;2023-02-28T08:21:57;128.20;6502.40
55331;DHT22;58851;42.984;20.336;2023-02-28T08:24:23;128.50;6502.40
55331;DHT22;58851;42.984;20.336;2023-02-28T08:26:49;128.50;128.00
55331;DHT22;58851;42.984;20.336;2023-02-28T08:29:15;128.60;6502.40
55331;DHT22;58851;42.984;20.336;2023-02-28T08:31:41;128.70;6502.40
55331;DHT22;58851;42.984;20.336;2023-02-28T08:34:09;128.70;6502.40
55331;DHT22;58851;42.984;20.336;2023-02-28T08:36:36;128.70;128.00
55331;DHT22;58851;42.984;20.336;2023-02-28T08:39:03;128.50;6502.40
55331;DHT22;58851;42.984;20.336;2023-02-28T08:41:29;128.50;6502.40
55331;DHT22;58851;42.984;20.336;2023-02-28T08:43:55;128.30;204.80
55331;DHT22;58851;42.984;20.336;2023-02-28T08:46:21;128.50;128.00
55331;DHT22;58851;42.984;20.336;2023-02-28T08:48:46;128.40;204.80
55331;DHT22;58851;42.984;20.336;2023-02-28T08:51:17;128.50;6502.40
55331;DHT22;58851;42.984;20.336;2023-02-28T08:53:52;128.20;435.20
55331;DHT22;58851;42.984;20.336;2023-02-28T08:56:19;128.30;6502.40
55331;DHT22;58851;42.984;20.336;2023-02-28T08:58:46;128.50;409.60
55331;DHT22;58851;42.984;20.336;2023-02-28T09:01:17;128.60;332.80
55331;DHT22;58851;42.984;20.336;2023-02-28T09:03:43;128.70;6502.40
55331;DHT22;58851;42.984;20.336;2023-02-28T09:06:12;128.90;6502.40
55331;DHT22;58851;42.984;20.336;2023-02-28T09:08:39;153.80;6502.40
55331;DHT22;58851;42.984;20.336;2023-02-28T09:11:05;153.80;6502.40
55331;DHT22;58851;42.984;20.336;2023-02-28T09:13:31;153.90;6502.40
55331;DHT22;58851;42.984;20.336;2023-02-28T09:16:01;154.10;6502.40
55331;DHT22;58851;42.984;20.336;2023-02-28T09:18:28;153.90;6502.40
55331;DHT22;58851;42.984;20.336;2023-02-28T09:20:54;153.80;6502.40
55331;DHT22;58851;42.984;20.336;2023-02-28T09:23:20;153.80;6502.40
55331;DHT22;58851;42.984;20.336;2023-02-28T09:25:51;153.90;6502.40
55331;DHT22;58851;42.984;20.336;2023-02-28T09:28:18;154.00;6502.40
55331;DHT22;58851;42.984;20.336;2023-02-28T09:30:45;153.80;6502.40
55331;DHT22;58851;42.984;20.336;2023-02-28T09:33:12;153.70;6502.40
55331;DHT22;58851;42.984;20.336;2023-02-28T09:35:39;153.80;6502.40
55331;DHT22;58851;42.984;20.336;2023-02-28T09:38:05;153.90;6502.40
55331;DHT22;58851;42.984;20.336;2023-02-28T09:40:36;154.10;6502.40
55331;DHT22;58851;42.984;20.336;2023-02-28T09:43:03;154.00;6502.40
55331;DHT22;58851;42.984;20.336;2023-02-28T09:45:39;154.00;6502.40
55331;DHT22;58851;42.984;20.336;2023-02-28T09:48:34;154.10;6502.40
55331;DHT22;58851;42.984;20.336;2023-02-28T09:53:54;154.40;6502.40
55331;DHT22;58851;42.984;20.336;2023-02-28T09:56:28;154.50;6502.40
55331;DHT22;58851;42.984;20.336;2023-02-28T09:58:58;179.20;6502.40
55331;DHT22;58851;42.984;20.336;2023-02-28T10:01:35;179.20;6502.40
55331;DHT22;58851;42.984;20.336;2023-02-28T10:04:31;154.20;6502.40
55331;DHT22;58851;42.984;20.336;2023-02-28T10:07:02;154.30;6502.40
55331;DHT22;58851;42.984;20.336;2023-02-28T10:09:32;179.20;6502.40
55331;DHT22;58851;42.984;20.336;2023-02-28T10:12:04;179.50;6502.40
55331;DHT22;58851;42.984;20.336;2023-02-28T10:14:33;179.50;6502.40
55331;DHT22;58851;42.984;20.336;2023-02-28T10:17:47;179.60;6502.40
55331;DHT22;58851;42.984;20.336;2023-02-28T10:25:23;179.80;6502.40
55331;DHT22;58851;42.984;20.336;2023-02-28T10:27:52;179.40;6502.40
55331;DHT22;58851;42.984;20.336;2023-02-28T10:30:19;179.40;6502.40
55331;DHT22;58851;42.984;20.336;2023-02-28T10:32:50;179.50;6502.40
55331;DHT22;58851;42.984;20.336;2023-02-28T10:35:21;179.70;6502.40
55331;DHT22;58851;42.984;20.336;2023-02-28T10:37:50;179.60;6502.40
55331;DHT22;58851;42.984;20.336;2023-02-28T10:43:05;179.70;6502.40
55331;DHT22;58851;42.984;20.336;2023-02-28T10:45:33;179.60;6502.40
55331;DHT22;58851;42.984;20.336;2023-02-28T10:50:50;179.90;6502.40
55331;DHT22;58851;42.984;20.336;2023-02-28T11:01:22;205.20;6502.40
55331;DHT22;58851;42.984;20.336;2023-02-28T11:03:48;205.10;6502.40
55331;DHT22;58851;42.984;20.336;2023-02-28T11:06:21;205.00;6502.40
55331;DHT22;58851;42.984;20.336;2023-02-28T11:08:56;205.10;6502.40
55331;DHT22;58851;42.984;20.336;2023-02-28T11:11:25;205.20;6502.40
55331;DHT22;58851;42.984;20.336;2023-02-28T11:13:57;205.20;6502.40
55331;DHT22;58851;42.984;20.336;2023-02-28T11:16:33;205.00;6502.40
55331;DHT22;58851;42.984;20.336;2023-02-28T11:19:00;205.00;6502.40
55331;DHT22;58851;42.984;20.336;2023-02-28T11:21:31;205.20;6502.40
55331;DHT22;58851;42.984;20.336;2023-02-28T11:24:28;205.30;6502.40
55331;DHT22;58851;42.984;20.336;2023-02-28T11:26:56;205.20;6502.40
55331;DHT22;58851;42.984;20.336;2023-02-28T11:29:27;205.20;6502.40
55331;DHT22;58851;42.984;20.336;2023-02-28T11:34:38;205.50;6502.40
55331;DHT22;58851;42.984;20.336;2023-02-28T11:37:11;205.50;6502.40
55331;DHT22;58851;42.984;20.336;2023-02-28T11:39:37;205.50;6502.40
55331;DHT22;58851;42.984;20.336;2023-02-28T11:53:10;205.20;6502.40
55331;DHT22;58851;42.984;20.336;2023-02-28T11:55:44;205.00;6502.40
55331;DHT22;58851;42.984;20.336;2023-02-28T12:09:47;205.30;6502.40
55331;DHT22;58851;42.984;20.336;2023-02-28T12:23:51;205.60;6502.40
55331;DHT22;58851;42.984;20.336;2023-02-28T12:26:39;205.60;6502.40
55331;DHT22;58851;42.984;20.336;2023-02-28T12:29:39;205.60;6502.40
55331;DHT22;58851;42.984;20.336;2023-02-28T12:32:29;205.70;6502.40
55331;DHT22;58851;42.984;20.336;2023-02-28T12:35:06;205.70;6502.40
55331;DHT22;58851;42.984;20.336;2023-02-28T12:40:29;205.50;6502.40
55331;DHT22;58851;42.984;20.336;2023-02-28T12:43:04;205.50;6502.40
55331;DHT22;58851;42.984;20.336;2023-02-28T12:45:42;205.40;6502.40
55331;DHT22;58851;42.984;20.336;2023-02-28T12:48:27;205.20;6502.40
55331;DHT22;58851;42.984;20.336;2023-02-28T12:50:56;205.20;6502.40
55331;DHT22;58851;42.984;20.336;2023-02-28T12:56:41;205.00;6502.40
55331;DHT22;58851;42.984;20.336;2023-02-28T12:59:11;205.00;6502.40
55331;DHT22;58851;42.984;20.336;2023-02-28T13:02:00;205.10;6502.40
55331;DHT22;58851;42.984;20.336;2023-02-28T13:10:08;179.80;6502.40
55331;DHT22;58851;42.984;20.336;2023-02-28T13:12:35;179.90;6502.40
55331;DHT22;58851;42.984;20.336;2023-02-28T13:15:15;180.00;6502.40
55331;DHT22;58851;42.984;20.336;2023-02-28T13:17:42;180.10;6502.40
55331;DHT22;58851;42.984;20.336;2023-02-28T13:20:29;204.80;6502.40
55331;DHT22;58851;42.984;20.336;2023-02-28T13:22:58;204.80;6502.40
55331;DHT22;58851;42.984;20.336;2023-02-28T13:28:00;204.90;6502.40
55331;DHT22;58851;42.984;20.336;2023-02-28T13:33:35;179.40;435.20
55331;DHT22;58851;42.984;20.336;2023-02-28T13:38:47;179.20;6502.40
55331;DHT22;58851;42.984;20.336;2023-02-28T13:46:35;179.40;6502.40
55331;DHT22;58851;42.984;20.336;2023-02-28T13:49:30;179.60;6502.40
55331;DHT22;58851;42.984;20.336;2023-02-28T14:05:17;179.70;486.40
55331;DHT22;58851;42.984;20.336;2023-02-28T14:07:52;179.50;6502.40
55331;DHT22;58851;42.984;20.336;2023-02-28T14:10:31;179.60;6502.40
55331;DHT22;58851;42.984;20.336;2023-02-28T14:18:29;179.50;6502.40
55331;DHT22;58851;42.984;20.336;2023-02-28T14:21:14;179.40;6502.40
55331;DHT22;58851;42.984;20.336;2023-02-28T14:24:01;179.40;6502.40
55331;DHT22;58851;42.984;20.336;2023-02-28T14:26:56;179.40;6502.40
55331;DHT22;58851;42.984;20.336;2023-02-28T14:32:28;179.60;6502.40
55331;DHT22;58851;42.984;20.336;2023-02-28T14:37:38;179.50;6502.40
55331;DHT22;58851;42.984;20.336;2023-02-28T14:40:15;179.50;6502.40
55331;DHT22;58851;42.984;20.336;2023-02-28T14:42:48;179.50;6502.40
55331;DHT22;58851;42.984;20.336;2023-02-28T14:45:21;179.60;6502.40
55331;DHT22;58851;42.984;20.336;2023-02-28T14:47:51;179.40;6502.40
55331;DHT22;58851;42.984;20.336;2023-02-28T14:50:20;179.50;6502.40
55331;DHT22;58851;42.984;20.336;2023-02-28T14:52:46;179.50;6502.40
55331;DHT22;58851;42.984;20.336;2023-02-28T14:55:17;179.60;6502.40
55331;DHT22;58851;42.984;20.336;2023-02-28T14:57:55;179.70;6502.40
55331;DHT22;58851;42.984;20.336;2023-02-28T15:00:33;179.70;6502.40
55331;DHT22;58851;42.984;20.336;2023-02-28T15:03:00;179.70;6502.40
55331;DHT22;58851;42.984;20.336;2023-02-28T15:05:34;179.70;6502.40
55331;DHT22;58851;42.984;20.336;2023-02-28T15:08:17;179.70;6502.40
55331;DHT22;58851;42.984;20.336;2023-02-28T15:10:51;179.60;6502.40
55331;DHT22;58851;42.984;20.336;2023-02-28T15:13:19;179.70;6502.40
55331;DHT22;58851;42.984;20.336;2023-02-28T15:15:53;179.70;6502.40
55331;DHT22;58851;42.984;20.336;2023-02-28T15:21:00;179.60;6502.40
55331;DHT22;58851;42.984;20.336;2023-02-28T15:23:28;179.70;6502.40
55331;DHT22;58851;42.984;20.336;2023-02-28T15:25:54;179.70;6502.40
55331;DHT22;58851;42.984;20.336;2023-02-28T15:28:22;179.80;6502.40
55331;DHT22;58851;42.984;20.336;2023-02-28T15:31:03;179.80;6502.40
55331;DHT22;58851;42.984;20.336;2023-02-28T15:33:56;179.70;6502.40
55331;DHT22;58851;42.984;20.336;2023-02-28T15:36:25;179.70;6502.40
55331;DHT22;58851;42.984;20.336;2023-02-28T15:38:53;179.70;6502.40
55331;DHT22;58851;42.984;20.336;2023-02-28T15:41:31;179.70;6502.40
55331;DHT22;58851;42.984;20.336;2023-02-28T15:47:14;179.70;6502.40
55331;DHT22;58851;42.984;20.336;2023-02-28T15:49:50;179.70;6502.40
55331;DHT22;58851;42.984;20.336;2023-02-28T15:52:22;179.70;6502.40
55331;DHT22;58851;42.984;20.336;2023-02-28T15:54:49;179.70;6502.40
55331;DHT22;58851;42.984;20.336;2023-02-28T15:57:23;179.60;6502.40
55331;DHT22;58851;42.984;20.336;2023-02-28T15:59:59;179.60;6502.40
55331;DHT22;58851;42.984;20.336;2023-02-28T16:02:35;179.60;6502.40
55331;DHT22;58851;42.984;20.336;2023-02-28T16:07:32;179.50;6502.40
55331;DHT22;58851;42.984;20.336;2023-02-28T16:09:59;179.50;6502.40
55331;DHT22;58851;42.984;20.336;2023-02-28T16:12:30;179.50;6502.40
55331;DHT22;58851;42.984;20.336;2023-02-28T16:14:58;179.50;6502.40
55331;DHT22;58851;42.984;20.336;2023-02-28T16:17:30;179.40;6502.40
55331;DHT22;58851;42.984;20.336;2023-02-28T16:19:57;179.40;6502.40
55331;DHT22;58851;42.984;20.336;2023-02-28T16:22:23;179.40;6502.40
55331;DHT22;58851;42.984;20.336;2023-02-28T16:24:49;179.40;6502.40
55331;DHT22;58851;42.984;20.336;2023-02-28T16:27:28;179.30;6502.40
55331;DHT22;58851;42.984;20.336;2023-02-28T16:29:55;179.30;6502.40
55331;DHT22;58851;42.984;20.336;2023-02-28T16:32:21;179.30;6502.40
55331;DHT22;58851;42.984;20.336;2023-02-28T16:34:47;154.50;6502.40
55331;DHT22;58851;42.984;20.336;2023-02-28T16:37:15;154.50;6502.40
55331;DHT22;58851;42.984;20.336;2023-02-28T16:39:42;154.40;6502.40
55331;DHT22;58851;42.984;20.336;2023-02-28T16:42:23;154.40;6502.40
55331;DHT22;58851;42.984;20.336;2023-02-28T16:44:50;154.40;6502.40
55331;DHT22;58851;42.984;20.336;2023-02-28T16:47:16;154.30;6502.40
55331;DHT22;58851;42.984;20.336;2023-02-28T16:49:42;154.40;6502.40
55331;DHT22;58851;42.984;20.336;2023-02-28T16:52:09;154.40;6502.40
55331;DHT22;58851;42.984;20.336;2023-02-28T16:54:38;154.30;6502.40
55331;DHT22;58851;42.984;20.336;2023-02-28T16:57:05;154.30;6502.40
55331;DHT22;58851;42.984;20.336;2023-02-28T16:59:32;154.20;6502.40
55331;DHT22;58851;42.984;20.336;2023-02-28T17:01:58;154.20;6502.40
55331;DHT22;58851;42.984;20.336;2023-02-28T17:04:27;154.30;6502.40
55331;DHT22;58851;42.984;20.336;2023-02-28T17:06:53;154.40;6502.40
55331;DHT22;58851;42.984;20.336;2023-02-28T17:09:22;154.30;6502.40
55331;DHT22;58851;42.984;20.336;2023-02-28T17:11:48;154.20;6502.40
55331;DHT22;58851;42.984;20.336;2023-02-28T17:14:15;154.30;6502.40
55331;DHT22;58851;42.984;20.336;2023-02-28T17:16:41;154.30;6502.40
55331;DHT22;58851;42.984;20.336;2023-02-28T17:19:12;154.30;6502.40
55331;DHT22;58851;42.984;20.336;2023-02-28T17:21:39;154.20;6502.40
55331;DHT22;58851;42.984;20.336;2023-02-28T17:24:07;154.30;6502.40
55331;DHT22;58851;42.984;20.336;2023-02-28T17:26:33;154.20;6502.40
55331;DHT22;58851;42.984;20.336;2023-02-28T17:28:59;154.30;6502.40
55331;DHT22;58851;42.984;20.336;2023-02-28T17:31:26;154.20;6502.40
55331;DHT22;58851;42.984;20.336;2023-02-28T17:33:53;154.30;6502.40
55331;DHT22;58851;42.984;20.336;2023-02-28T17:36:25;154.30;6502.40
55331;DHT22;58851;42.984;20.336;2023-02-28T17:38:52;154.20;6502.40